Terminal Aerodrome Forecast
Issued by NWS Charleston, WV

Current Version | Previous Version | Graphics & Text | Print | Product List | Glossary On
Versions: 1 2 3 4 5 6 7 8 9 10 11 12 13 14 15 16 17 18 19 20 21 22 23 24
000
FTUS41 KRLX 272300 RRA
TAFEKN
TAF
KEKN 272343Z 2800/2824 00000KT P6SM FEW250
      TEMPO 2801/2802 1SM TSRA BKN030CB OVC050
     FM280500 00000KT 5SM BR BKN025
     FM280900 00000KT 2SM BR BKN025
     FM281000 00000KT 1SM BR SCT020
     FM281300 00000KT P6SM SCT250
     FM281700 32005KT P6SM FEW110=

USA.gov is the U.S. government's official web portal to all federal, state and local government web resources and services.